Flat Rock, NC (28731)

6:35 PM EDT on August 30, 2014 (GMT -0400)
Ridgeview | Change Station
CLOSE
Current Station
Personal Weather Station
Location: Flat Rock, NC
Elevation: 2425 ft
Nearby Weather Stations

Elev 2425 ft 35.26 °N, 82.45 °W | Updated 1 second ago

Overcast
Overcast
78.2 °F
Feels Like 81 °F
N
0.0
Wind Variable Wind from NNE
Gusts 0.0 mph

Today
High -- | Low -- °F
--% Chance of Precip.
Yesterday
High -- | Low -- °F
Precip. -- in
7:00 AM 7:59 PM
Waxing Crescent, 25% visible
Pressure 30.11 in
Visibility 10.0 miles
Clouds Mostly Cloudy 3800 ft
Overcast 10000 ft
Heat Index 81 °F
Dew Point 71 °F
Humidity 79%
Rainfall 0.00 in
Snow Depth Not available.
UV 1 out of 12
Pollen 9.10 out of 12
Ozone Good
PM2.5 Moderate
Flu Activity Not available.
METAR KAVL 302154Z 15006KT 10SM BKN038 OVC100 27/19 A3019 RMK AO2 SLP194 T02720194

More Conditions Fewer Conditions

Pressure 30.11 in
Visibility 10.0 miles
Clouds Mostly Cloudy 3800 ft
Overcast 10000 ft
Heat Index 81 °F
Dew Point 71 °F
Humidity 79%
Rainfall 0.00 in
Snow Depth Not available.
UV 1 out of 12
Pollen 9.10 out of 12
Ozone Good
PM2.5 Moderate
Flu Activity Not available.
METAR KAVL 302154Z 15006KT 10SM BKN038 OVC100 27/19 A3019 RMK AO2 SLP194 T02720194

More Conditions Fewer Conditions

10-Day Weather Forecast

Almanac

Astronomy

Aug. 30, 2014 Rise Set
Actual Time 7:00 AM EDT 7:59 PM EDT
Civil Twilight 6:34 AM EDT 8:25 PM EDT
Nautical Twilight 6:03 AM EDT 8:56 PM EDT
Astronomical Twilight 5:31 AM EDT 9:27 PM EDT
Moon 11:35 AM EDT 10:45 PM EDT
Length of Visible Light 13h 50m
Length of Day
12h 58m
Tomorrow will be 2m 7s shorter.
Waxing Crescent, 25% of the Moon is Illuminated
Today
Waxing Crescent
Sep 2
First Quarter
Sep 8
Full
Sep 15
Last Quarter
Sep 24
New

Today's Extremes

State Highs State Lows

Community

WunderPhotos

Upload Photos

1,748,657 photos uploaded!

WunderBlogs® & News

Nearby

Air Quality

  Air Quality AQ Index Pollutant
Yesterday Moderate
PM2.5
Yesterday Good
OZONE
Current Moderate
PM2.5
Current Good
OZONE
Saturday Good
PM2.5
Saturday Good
OZONE
Sunday Good
PM2.5
Sunday Good
OZONE
Monday Good
PM2.5
Monday Good
OZONE
Tuesday Good
PM2.5
Tuesday Good
OZONE

Snow Depth

Station Depth Elevation
No new snow has been reported.

Earthquake Activity

City Distance Mag. Time & Date
No recent earthquake activity has been reported nearby.
Minimum magnitude displayed is 2.5.

Coastal Water Temperatures

Place Temperature
No Stations Reporting

Nearby Weather Stations